Splane Place, Louisiana
Current Conditions -  °F | °C
As of 7:53 PM on Friday 21 Nov 2014 (Local Time) from KMLU Reporting Station
Broken Clouds Broken Clouds  
Wind Chill: 63°   Ceiling: 9000
Heat Index: 63°   Visibility: 10mi
Dew Point: 48°   Wind: 3mph
Humidity: 58%   Direction: 110°ESE
Pressure: 30.25"   Gusts: NA
Location:  32.5473°N, 92.2007°W
Report Text: KMLU 220153Z 11003KT 10SM BKN090 BKN120 17/09 A3025 RMK AO2 SLP243 T01720089
Loading
Personal Weather Stations






























Interactive Weather Map New forecast layout! Learn more

10-Day Weather Forecast

Advertisements
Track Severe Weather on mobile